Smithfield - 24 Hour Table
Date & TimeSolar
Radiation
(W/m²)
Wind
Speed
(mph)
Wind
Direction
(degrees)
Air
Temperature
(°F)
Relative
Humidity
(%)
Precipitation
(inches)
2020/01/25 06:00 0 1.5 79 32.4 98 0.00
2020/01/25 05:00 0 2.3 38 32.8 97 0.00
2020/01/25 04:00 0 2.0 99 33.3 96 0.00
2020/01/25 03:00 0 2.7 43 33.5 95 0.00
2020/01/25 02:00 0 2.3 59 32.8 98 0.00
2020/01/25 01:00 0 1.5 38 32.1 98 0.00
2020/01/25 00:00 0 1.7 43 32.0 98 0.00
2020/01/24 23:00 0 2.5 350 33.8 95 0.00
2020/01/24 22:00 0 2.2 63 34.1 94 0.00
2020/01/24 21:00 0 2.7 39 32.6 99 0.00
2020/01/24 20:00 0 1.4 80 32.4 99 0.00
2020/01/24 19:00 0 2.1 5 32.5 98 0.00
2020/01/24 18:00 3 2.5 14 32.4 98 0.00
2020/01/24 17:00 31 3.6 3 32.6 98 0.01
2020/01/24 16:00 87 5.6 358 32.6 97 0.01
2020/01/24 15:00 85 4.6 357 32.8 97 0.01
2020/01/24 14:00 204 5.3 355 33.5 95 0.00
2020/01/24 13:00 168 3.4 344 34.6 91 0.00
2020/01/24 12:00 180 2.1 240 35.0 84 0.00
2020/01/24 11:00 170 1.6 176 33.4 85 0.00
2020/01/24 10:00 80 1.4 81 31.8 90 0.00
2020/01/24 09:00 32 1.6 51 30.1 94 0.00
2020/01/24 08:00 2 2.6 25 30.7 90 0.00
2020/01/24 07:00 0 2.4 77 29.6 95 0.00